createdAt,value
2018-10-19T00:01:32.657Z,81.50
2018-10-19T00:04:02.531Z,81.80
2018-10-19T00:06:39.141Z,82.00
2018-10-19T00:09:11.869Z,82.10
2018-10-19T00:11:44.676Z,82.10
2018-10-19T00:14:16.144Z,81.30
2018-10-19T00:16:47.534Z,81.20
2018-10-19T00:19:17.998Z,80.60
2018-10-19T00:21:48.034Z,80.00
2018-10-19T00:24:23.859Z,80.60
2018-10-19T00:26:57.534Z,80.20
2018-10-19T00:29:29.481Z,79.90
2018-10-19T00:32:01.560Z,80.30
2018-10-19T00:34:32.028Z,80.50
2018-10-19T00:37:02.213Z,80.00
2018-10-19T00:39:32.480Z,79.90
2018-10-19T00:42:02.413Z,80.10
2018-10-19T00:44:32.922Z,80.00
2018-10-19T00:47:03.724Z,79.70
2018-10-19T00:49:34.776Z,79.70
2018-10-19T00:52:06.044Z,79.30
2018-10-19T00:54:37.102Z,79.10
2018-10-19T00:57:07.358Z,80.30
2018-10-19T00:59:37.855Z,79.60
2018-10-19T01:02:08.284Z,80.30
2018-10-19T01:04:38.928Z,79.60
2018-10-19T01:07:13.707Z,80.00
2018-10-19T01:09:44.404Z,79.70
2018-10-19T01:12:15.349Z,80.20
2018-10-19T01:14:45.929Z,80.00
2018-10-19T01:17:16.123Z,80.00
2018-10-19T01:19:46.723Z,79.90
2018-10-19T01:22:17.925Z,79.90
2018-10-19T01:24:48.025Z,80.10
2018-10-19T01:27:18.317Z,80.00
2018-10-19T01:29:48.557Z,80.50
2018-10-19T01:32:20.565Z,80.00
2018-10-19T01:35:03.506Z,79.90
2018-10-19T01:37:44.036Z,79.90
2018-10-19T01:40:15.074Z,79.70
2018-10-19T01:42:45.902Z,79.10
2018-10-19T01:45:17.070Z,78.90
2018-10-19T01:47:47.643Z,78.50
2018-10-19T01:50:17.682Z,78.70
2018-10-19T01:52:49.323Z,78.80
2018-10-19T01:55:21.937Z,79.00
2018-10-19T01:57:53.580Z,78.70
2018-10-19T02:00:23.666Z,79.00
2018-10-19T02:02:54.145Z,79.00
2018-10-19T02:05:25.031Z,78.80
2018-10-19T02:07:55.370Z,78.80
2018-10-19T02:10:30.181Z,78.70
2018-10-19T02:13:00.470Z,78.70
2018-10-19T02:15:31.484Z,78.50
2018-10-19T02:18:01.693Z,78.50
2018-10-19T02:20:37.545Z,78.60
2018-10-19T02:23:07.397Z,79.30
2018-10-19T02:25:39.194Z,78.80
2018-10-19T02:28:10.276Z,79.60
2018-10-19T02:30:41.912Z,79.60
2018-10-19T02:33:12.107Z,79.80
2018-10-19T02:35:47.088Z,79.60
2018-10-19T02:38:18.224Z,80.80
2018-10-19T02:40:48.745Z,81.40
2018-10-19T02:43:21.973Z,82.80
2018-10-19T02:45:53.082Z,83.70
2018-10-19T02:48:23.763Z,82.70
2018-10-19T02:50:53.964Z,83.00
2018-10-19T02:53:24.513Z,83.00
2018-10-19T02:55:54.723Z,82.00
2018-10-19T02:58:26.253Z,81.70
2018-10-19T03:00:59.848Z,81.40
2018-10-19T03:03:30.805Z,81.10
2018-10-19T03:06:02.122Z,80.30
2018-10-19T03:08:32.781Z,80.40
2018-10-19T03:11:04.197Z,80.00
2018-10-19T03:13:34.197Z,79.90
2018-10-19T03:16:04.022Z,79.60
2018-10-19T03:18:34.141Z,80.70
2018-10-19T03:21:04.002Z,80.30
2018-10-19T03:23:33.936Z,80.20
2018-10-19T03:26:05.358Z,80.40
2018-10-19T03:28:36.418Z,80.00
2018-10-19T03:31:06.639Z,80.10
2018-10-19T03:33:36.940Z,79.90
2018-10-19T03:36:08.036Z,79.60
2018-10-19T03:38:39.964Z,79.40
2018-10-19T03:41:11.203Z,80.50
2018-10-19T03:43:42.420Z,79.80
2018-10-19T03:46:14.939Z,79.70
2018-10-19T03:48:45.445Z,79.60
2018-10-19T03:51:15.829Z,79.60
2018-10-19T03:53:46.238Z,79.70
2018-10-19T03:56:16.813Z,79.70
2018-10-19T03:58:47.341Z,80.20
2018-10-19T04:01:18.507Z,80.70
2018-10-19T04:03:49.782Z,80.10
2018-10-19T04:06:24.119Z,80.10
2018-10-19T04:08:55.225Z,79.60
2018-10-19T04:11:26.676Z,79.40
2018-10-19T04:13:56.861Z,79.30
2018-10-19T04:16:31.832Z,79.20
2018-10-19T04:19:02.225Z,79.30
2018-10-19T04:21:34.276Z,79.30
2018-10-19T04:24:06.160Z,79.80
2018-10-19T04:26:37.325Z,79.10
2018-10-19T04:29:07.860Z,79.10
2018-10-19T04:31:38.286Z,79.10
2018-10-19T04:34:08.914Z,78.90
2018-10-19T04:36:39.401Z,78.90
2018-10-19T04:39:10.780Z,78.70
2018-10-19T04:41:42.848Z,79.40
2018-10-19T04:44:13.652Z,78.40
2018-10-19T04:46:48.463Z,78.20
2018-10-19T04:49:19.728Z,78.20
2018-10-19T04:51:50.699Z,78.10
2018-10-19T04:54:21.102Z,77.90
2018-10-19T04:56:52.857Z,77.90
2018-10-19T04:59:23.469Z,77.90
2018-10-19T05:01:54.712Z,77.90
2018-10-19T05:04:25.151Z,77.90
2018-10-19T05:06:56.739Z,77.90
2018-10-19T05:09:27.822Z,77.80
2018-10-19T05:11:58.246Z,78.00
2018-10-19T05:14:28.625Z,78.10
2018-10-19T05:17:02.866Z,78.20
2018-10-19T05:19:33.258Z,78.20
2018-10-19T05:22:03.203Z,78.80
2018-10-19T05:24:33.168Z,79.20
2018-10-19T05:27:03.133Z,79.20
2018-10-19T05:29:33.710Z,79.20
2018-10-19T05:32:06.246Z,79.00
2018-10-19T05:34:40.035Z,78.80
2018-10-19T05:37:10.376Z,78.70
2018-10-19T05:39:50.299Z,78.60
2018-10-19T05:42:21.719Z,78.70
2018-10-19T05:45:03.352Z,78.70
2018-10-19T05:47:33.375Z,79.30
2018-10-19T05:50:03.413Z,80.00
2018-10-19T05:52:39.728Z,79.80
2018-10-19T05:55:11.878Z,80.60
2018-10-19T05:57:42.445Z,80.00
2018-10-19T06:00:13.240Z,79.60
2018-10-19T06:02:43.776Z,79.40
2018-10-19T06:05:14.747Z,79.00
2018-10-19T06:07:46.838Z,79.10
2018-10-19T06:10:20.025Z,79.20
2018-10-19T06:12:53.461Z,80.00
2018-10-19T06:15:28.265Z,80.30
2018-10-19T06:18:01.647Z,80.30
2018-10-19T06:20:31.700Z,79.80
2018-10-19T06:23:01.993Z,79.40
2018-10-19T06:25:33.869Z,79.30
2018-10-19T06:28:04.410Z,79.30
2018-10-19T06:30:35.269Z,79.50
2018-10-19T06:33:05.542Z,80.30
2018-10-19T06:35:35.789Z,79.30
2018-10-19T06:38:07.125Z,79.00
2018-10-19T06:40:39.103Z,78.70
2018-10-19T06:43:09.674Z,78.80
2018-10-19T06:45:41.341Z,78.40
2018-10-19T06:48:12.600Z,78.40
2018-10-19T06:50:43.860Z,79.60
2018-10-19T06:53:15.703Z,78.60
2018-10-19T06:55:46.192Z,79.60
2018-10-19T06:58:20.665Z,79.10
2018-10-19T07:00:52.227Z,81.20
2018-10-19T07:03:36.806Z,79.30
2018-10-19T07:06:08.480Z,79.80
2018-10-19T07:08:41.319Z,80.20
2018-10-19T07:11:12.710Z,82.50
2018-10-19T07:13:42.572Z,80.40
2018-10-19T07:18:50.754Z,79.70
2018-10-19T07:21:22.224Z,79.70
2018-10-19T07:24:00.645Z,79.50
2018-10-19T07:26:31.920Z,79.30
2018-10-19T07:29:03.150Z,79.30
2018-10-19T07:31:33.908Z,79.50
2018-10-19T07:34:04.064Z,79.00
2018-10-19T07:36:36.978Z,78.50
2018-10-19T07:39:09.086Z,78.50
2018-10-19T07:41:39.286Z,78.80
2018-10-19T07:44:11.304Z,78.40
2018-10-19T07:46:43.381Z,78.60
2018-10-19T07:49:13.767Z,78.70
2018-10-19T07:51:44.333Z,78.80
2018-10-19T07:54:15.318Z,78.40
2018-10-19T07:56:48.963Z,78.50
2018-10-19T07:59:20.274Z,78.60
2018-10-19T08:01:50.783Z,78.50
2018-10-19T08:04:38.030Z,78.30
2018-10-19T08:07:09.564Z,78.20
2018-10-19T08:09:39.904Z,78.20
2018-10-19T08:12:10.525Z,78.40
2018-10-19T08:14:40.905Z,78.20
2018-10-19T08:17:11.718Z,78.30
2018-10-19T08:19:42.988Z,78.50
2018-10-19T08:22:46.799Z,78.10
2018-10-19T08:25:17.110Z,78.30
2018-10-19T08:27:47.561Z,78.10
2018-10-19T08:30:17.861Z,78.30
2018-10-19T08:32:48.440Z,78.20
2018-10-19T08:35:19.413Z,78.30
2018-10-19T08:37:50.104Z,78.50
2018-10-19T08:40:20.835Z,78.50
2018-10-19T08:42:51.731Z,78.70
2018-10-19T08:45:24.275Z,78.20
2018-10-19T08:47:55.738Z,78.30
2018-10-19T08:50:27.955Z,78.70
2018-10-19T08:52:59.990Z,78.30
2018-10-19T08:55:30.347Z,78.80
2018-10-19T08:58:01.997Z,78.80
2018-10-19T09:00:32.229Z,78.70
2018-10-19T09:03:04.025Z,78.80
2018-10-19T09:05:33.993Z,78.80
2018-10-19T09:08:03.826Z,79.10
2018-10-19T09:10:33.648Z,79.00
2018-10-19T09:13:04.367Z,79.10
2018-10-19T09:15:34.166Z,80.10
2018-10-19T09:18:04.171Z,80.00
2018-10-19T09:20:34.100Z,79.30
2018-10-19T09:23:04.689Z,80.20
2018-10-19T09:25:35.279Z,80.10
2018-10-19T09:28:07.226Z,79.40
2018-10-19T09:30:38.899Z,79.90
2018-10-19T09:33:18.007Z,79.10
2018-10-19T09:35:51.363Z,79.40
2018-10-19T09:38:22.018Z,78.70
2018-10-19T09:40:53.090Z,79.00
2018-10-19T09:43:25.157Z,80.50
2018-10-19T09:45:55.672Z,79.70
2018-10-19T09:48:27.518Z,80.00
2018-10-19T09:50:59.092Z,80.00
2018-10-19T09:53:31.455Z,79.70
2018-10-19T09:56:01.595Z,80.10
2018-10-19T09:58:32.289Z,79.90
2018-10-19T10:01:02.487Z,80.00
2018-10-19T10:03:32.901Z,80.00
2018-10-19T10:06:02.795Z,80.10
2018-10-19T10:08:40.493Z,79.90
2018-10-19T10:11:31.903Z,79.90
2018-10-19T10:14:02.009Z,79.80
2018-10-19T10:16:39.782Z,79.60
2018-10-19T10:19:12.667Z,79.60
2018-10-19T10:21:43.437Z,79.60
2018-10-19T10:24:14.639Z,79.50
2018-10-19T10:26:46.781Z,79.40
2018-10-19T10:29:17.399Z,79.50
2018-10-19T10:31:48.850Z,79.20
2018-10-19T10:34:19.469Z,79.00
2018-10-19T10:36:50.070Z,78.80
2018-10-19T10:39:20.202Z,78.50
2018-10-19T10:41:51.119Z,78.40
2018-10-19T10:44:23.166Z,78.50
2018-10-19T10:46:54.476Z,78.30
2018-10-19T10:49:24.823Z,78.10
2018-10-19T10:51:56.669Z,77.90
2018-10-19T10:54:27.971Z,77.90
2018-10-19T10:56:59.662Z,77.90
2018-10-19T10:59:31.149Z,77.90
2018-10-19T11:02:03.143Z,77.80
2018-10-19T11:04:37.369Z,77.40
2018-10-19T11:07:07.892Z,77.10
2018-10-19T11:09:38.699Z,77.10
2018-10-19T11:12:09.578Z,77.20
2018-10-19T11:14:40.504Z,77.00
2018-10-19T11:17:10.883Z,76.90
2018-10-19T11:19:42.831Z,76.70
2018-10-19T11:22:14.027Z,76.30
2018-10-19T11:24:45.727Z,76.40
2018-10-19T11:27:16.898Z,76.20
2018-10-19T11:29:48.112Z,76.20
2018-10-19T11:32:18.936Z,76.10
2018-10-19T11:34:51.964Z,75.80
2018-10-19T11:37:22.581Z,75.20
2018-10-19T11:40:03.358Z,75.10
2018-10-19T11:42:34.006Z,75.30
2018-10-19T11:45:05.390Z,75.50
2018-10-19T11:47:37.844Z,75.30
2018-10-19T11:50:10.562Z,75.20
2018-10-19T11:52:42.627Z,75.50
2018-10-19T11:55:13.899Z,75.10
2018-10-19T11:57:44.806Z,75.00
2018-10-19T12:00:16.636Z,75.10
2018-10-19T12:02:48.947Z,75.30
2018-10-19T12:05:19.380Z,75.60
2018-10-19T12:07:49.584Z,75.90
2018-10-19T12:10:19.800Z,75.90
2018-10-19T12:12:55.175Z,75.90
2018-10-19T12:15:25.011Z,76.30
2018-10-19T12:17:56.918Z,76.30
2018-10-19T12:20:28.010Z,76.20
2018-10-19T12:22:59.475Z,76.10
2018-10-19T12:25:30.203Z,75.90
2018-10-19T12:28:01.782Z,75.90
2018-10-19T12:30:31.932Z,75.90
2018-10-19T12:33:02.521Z,75.90
2018-10-19T12:35:34.613Z,75.70
2018-10-19T12:38:05.143Z,75.60
2018-10-19T12:40:37.299Z,75.40
2018-10-19T12:43:09.103Z,75.20
2018-10-19T12:46:50.563Z,75.00
2018-10-19T12:49:24.216Z,75.00
2018-10-19T12:51:54.805Z,74.50
2018-10-19T12:54:27.081Z,74.30
2018-10-19T12:56:58.250Z,74.30
2018-10-19T12:59:28.517Z,74.50
2018-10-19T13:01:59.997Z,74.60
2018-10-19T13:04:37.229Z,74.70
2018-10-19T13:07:12.988Z,74.40
2018-10-19T13:09:43.844Z,74.30
2018-10-19T13:12:20.237Z,74.00
2018-10-19T13:14:52.441Z,73.80
2018-10-19T13:17:24.423Z,73.50
2018-10-19T13:19:55.925Z,73.00
2018-10-19T13:22:27.466Z,72.80
2018-10-19T13:24:59.173Z,72.50
2018-10-19T13:27:29.476Z,72.20
2018-10-19T13:30:00.026Z,72.10
2018-10-19T13:32:31.096Z,72.00
2018-10-19T13:35:01.917Z,72.60
2018-10-19T13:37:32.255Z,72.80
2018-10-19T13:40:02.529Z,73.10
2018-10-19T13:42:33.186Z,73.80
2018-10-19T13:45:03.766Z,74.00
2018-10-19T13:47:35.191Z,74.30
2018-10-19T13:50:07.569Z,74.30
2018-10-19T13:52:39.131Z,74.30
2018-10-19T13:55:14.613Z,74.20
2018-10-19T13:57:48.276Z,74.10
2018-10-19T14:00:24.536Z,74.10
2018-10-19T14:02:54.976Z,73.80
2018-10-19T14:05:26.889Z,73.50
2018-10-19T14:07:56.937Z,73.50
2018-10-19T14:10:27.175Z,73.40
2018-10-19T14:12:57.838Z,73.30
2018-10-19T14:15:29.056Z,72.80
2018-10-19T14:17:59.406Z,72.70
2018-10-19T14:20:32.640Z,72.70
2018-10-19T14:23:08.443Z,72.90
2018-10-19T14:25:39.102Z,73.10
2018-10-19T14:28:09.803Z,73.20
2018-10-19T14:30:55.447Z,73.20
2018-10-19T14:33:34.606Z,73.40
2018-10-19T14:36:05.559Z,73.30
2018-10-19T14:38:41.328Z,73.20
2018-10-19T14:41:28.195Z,73.20
2018-10-19T14:43:59.523Z,73.00
2018-10-19T14:46:32.397Z,72.80
2018-10-19T14:49:02.377Z,72.60
2018-10-19T14:51:34.015Z,72.50
2018-10-19T14:54:04.707Z,72.00
2018-10-19T14:56:35.307Z,71.70
2018-10-19T14:59:06.131Z,71.60
2018-10-19T15:01:38.415Z,71.50
2018-10-19T15:04:09.628Z,71.40
2018-10-19T15:06:40.253Z,71.50
2018-10-19T15:09:18.431Z,71.70
2018-10-19T15:11:56.166Z,71.50
2018-10-19T15:14:31.412Z,71.30
2018-10-19T15:17:03.986Z,71.10
2018-10-19T15:19:35.891Z,71.10
2018-10-19T15:22:06.484Z,71.20
2018-10-19T15:24:37.053Z,71.30
2018-10-19T15:27:07.706Z,71.40
2018-10-19T15:29:38.699Z,71.50
2018-10-19T15:32:08.915Z,71.80
2018-10-19T15:34:39.366Z,72.00
2018-10-19T15:37:09.853Z,72.10
2018-10-19T15:39:40.196Z,72.30
2018-10-19T15:42:11.149Z,72.50
2018-10-19T15:44:42.840Z,72.60
2018-10-19T15:47:13.138Z,72.90
2018-10-19T15:49:43.443Z,73.00
2018-10-19T15:52:14.205Z,73.10
2018-10-19T15:54:44.928Z,73.20
2018-10-19T15:57:17.011Z,73.30
2018-10-19T15:59:48.347Z,74.20
2018-10-19T16:02:19.550Z,73.50
2018-10-19T16:04:53.706Z,73.50
2018-10-19T16:07:24.105Z,73.50
2018-10-19T16:09:56.782Z,73.50
2018-10-19T16:12:27.968Z,73.40
2018-10-19T16:14:59.867Z,73.40
2018-10-19T16:17:30.861Z,73.30
2018-10-19T16:20:01.917Z,73.40
2018-10-19T16:22:35.500Z,73.50
2018-10-19T16:25:06.028Z,73.60
2018-10-19T16:27:41.906Z,73.70
2018-10-19T16:30:13.016Z,73.80
2018-10-19T16:32:44.189Z,73.80
2018-10-19T16:38:05.687Z,73.80
2018-10-19T16:40:37.233Z,73.80
2018-10-19T16:43:08.506Z,73.80
2018-10-19T16:45:39.290Z,73.80
2018-10-19T16:48:11.227Z,73.80
2018-10-19T16:50:42.610Z,73.90
2018-10-19T16:53:13.381Z,73.80
2018-10-19T16:55:44.458Z,73.90
2018-10-19T16:58:15.635Z,74.00
2018-10-19T17:00:46.697Z,74.00
2018-10-19T17:03:17.097Z,73.90
2018-10-19T17:05:48.447Z,74.00
2018-10-19T17:08:19.005Z,74.00
2018-10-19T17:10:50.288Z,74.00
2018-10-19T17:13:20.547Z,74.00
2018-10-19T17:15:51.966Z,74.00
2018-10-19T17:18:22.166Z,74.00
2018-10-19T17:20:52.443Z,74.00
2018-10-19T17:23:23.029Z,74.00
2018-10-19T17:25:54.353Z,74.00
2018-10-19T17:28:28.687Z,74.00
2018-10-19T17:31:01.059Z,74.00
2018-10-19T17:33:31.555Z,74.00
2018-10-19T17:36:03.881Z,74.10
2018-10-19T17:38:33.789Z,74.10
2018-10-19T17:41:06.013Z,74.10
2018-10-19T17:43:37.439Z,74.10
2018-10-19T17:46:07.793Z,74.10
2018-10-19T17:48:39.131Z,74.10
2018-10-19T17:51:11.161Z,74.10
2018-10-19T17:53:41.671Z,74.10
2018-10-19T17:56:14.420Z,74.10
2018-10-19T17:58:45.650Z,74.20
2018-10-19T18:01:19.239Z,74.10
2018-10-19T18:03:50.468Z,74.10
2018-10-19T18:06:20.815Z,74.10
2018-10-19T18:08:53.208Z,74.00
2018-10-19T18:11:23.851Z,74.10
2018-10-19T18:13:55.309Z,74.00
2018-10-19T18:16:26.094Z,74.00
2018-10-19T18:18:59.177Z,73.80
2018-10-19T18:21:31.553Z,73.90
2018-10-19T18:24:02.929Z,73.80
2018-10-19T18:26:33.603Z,73.80
2018-10-19T18:29:04.056Z,73.80
2018-10-19T18:31:34.804Z,73.90
2018-10-19T18:34:06.270Z,74.00
2018-10-19T18:36:37.505Z,74.80
2018-10-19T18:39:13.855Z,74.10
2018-10-19T18:41:45.267Z,74.10
2018-10-19T18:44:17.884Z,74.30
2018-10-19T18:46:49.442Z,74.40
2018-10-19T18:49:20.797Z,74.30
2018-10-19T18:51:51.880Z,74.40
2018-10-19T18:54:25.192Z,74.40
2018-10-19T18:57:12.430Z,74.40
2018-10-19T18:59:44.027Z,74.60
2018-10-19T19:02:15.195Z,74.30
2018-10-19T19:04:45.882Z,74.40
2018-10-19T19:07:18.120Z,74.30
2018-10-19T19:09:54.798Z,74.40
2018-10-19T19:12:25.831Z,74.60
2018-10-19T19:14:57.529Z,74.60
2018-10-19T19:17:29.028Z,74.70
2018-10-19T19:20:04.684Z,74.70
2018-10-19T19:22:35.373Z,74.80
2018-10-19T19:25:11.713Z,74.70
2018-10-19T19:27:43.293Z,74.60
2018-10-19T19:30:38.834Z,74.70
2018-10-19T19:33:31.508Z,74.60
2018-10-19T19:36:01.798Z,74.70
2018-10-19T19:38:32.214Z,74.80
2018-10-19T19:41:07.411Z,74.70
2018-10-19T19:43:41.247Z,74.70
2018-10-19T19:46:12.491Z,75.00
2018-10-19T19:48:49.229Z,74.90
2018-10-19T19:51:22.456Z,74.90
2018-10-19T19:53:53.546Z,74.70
2018-10-19T19:56:23.987Z,74.60
2018-10-19T19:58:54.938Z,74.60
2018-10-19T20:01:25.505Z,74.70
2018-10-19T20:03:56.767Z,74.70
2018-10-19T20:06:29.012Z,74.60
2018-10-19T20:09:00.125Z,74.60
2018-10-19T20:11:30.795Z,74.70
2018-10-19T20:14:01.934Z,74.90
2018-10-19T20:16:32.413Z,74.70
2018-10-19T20:19:03.042Z,74.70
2018-10-19T20:21:33.701Z,75.00
2018-10-19T20:24:04.352Z,75.40
2018-10-19T20:26:34.971Z,75.60
2018-10-19T20:29:06.406Z,75.90
2018-10-19T20:31:37.104Z,76.70
2018-10-19T20:34:08.329Z,76.80
2018-10-19T20:36:39.015Z,77.60
2018-10-19T20:39:12.172Z,77.70
2018-10-19T20:41:42.892Z,77.10
2018-10-19T20:44:13.432Z,77.20
2018-10-19T20:46:44.017Z,77.40
2018-10-19T20:49:14.150Z,77.30
2018-10-19T20:51:44.466Z,77.50
2018-10-19T20:54:14.814Z,77.50
2018-10-19T20:56:45.150Z,77.10
2018-10-19T20:59:16.670Z,77.40
2018-10-19T21:01:51.429Z,77.40
2018-10-19T21:04:23.045Z,77.80
2018-10-19T21:06:53.588Z,77.70
2018-10-19T21:09:23.902Z,77.90
2018-10-19T21:11:53.877Z,78.80
2018-10-19T21:14:26.109Z,79.40
2018-10-19T21:16:56.916Z,80.20
2018-10-19T21:19:27.737Z,81.00
2018-10-19T21:21:57.818Z,81.80
2018-10-19T21:24:28.182Z,81.90
2018-10-19T21:26:58.936Z,81.90
2018-10-19T21:29:29.508Z,81.80
2018-10-19T21:32:00.389Z,81.00
2018-10-19T21:34:32.710Z,80.30
2018-10-19T21:37:04.966Z,81.10
2018-10-19T21:39:36.020Z,81.10
2018-10-19T21:42:07.671Z,80.90
2018-10-19T21:44:38.029Z,81.10
2018-10-19T21:47:08.463Z,80.80
2018-10-19T21:49:39.372Z,80.80
2018-10-19T21:52:11.134Z,80.20
2018-10-19T21:54:42.382Z,79.70
2018-10-19T21:57:13.549Z,79.50
2018-10-19T21:59:45.457Z,79.30
2018-10-19T22:02:16.608Z,79.40
2018-10-19T22:04:47.197Z,79.20
2018-10-19T22:07:18.079Z,79.30
2018-10-19T22:09:49.461Z,78.90
2018-10-19T22:12:19.732Z,78.70
2018-10-19T22:14:50.178Z,78.60
2018-10-19T22:17:20.613Z,79.10
2018-10-19T22:19:51.067Z,80.10
2018-10-19T22:22:22.402Z,80.90
2018-10-19T22:24:52.925Z,80.70
2018-10-19T22:27:23.895Z,81.30
2018-10-19T22:29:54.315Z,81.40
2018-10-19T22:32:26.675Z,79.90
2018-10-19T22:34:58.484Z,79.80
2018-10-19T22:37:34.542Z,79.60
2018-10-19T22:40:04.664Z,79.60
2018-10-19T22:42:35.661Z,79.80
2018-10-19T22:45:07.843Z,80.00
2018-10-19T22:47:37.647Z,81.30
2018-10-19T22:50:09.441Z,81.20
2018-10-19T22:52:39.706Z,80.80
2018-10-19T22:55:10.916Z,80.30
2018-10-19T22:57:42.555Z,79.90
2018-10-19T23:00:13.983Z,79.60
2018-10-19T23:02:45.493Z,79.30
2018-10-19T23:05:16.095Z,79.00
2018-10-19T23:07:46.637Z,78.70
2018-10-19T23:10:16.964Z,79.20
2018-10-19T23:12:47.337Z,78.40
2018-10-19T23:15:20.560Z,78.00
2018-10-19T23:17:50.941Z,77.80
2018-10-19T23:20:22.046Z,77.50
2018-10-19T23:22:53.814Z,77.30
2018-10-19T23:25:24.319Z,77.10
2018-10-19T23:27:55.761Z,77.00
2018-10-19T23:30:26.427Z,76.80
2018-10-19T23:32:58.293Z,76.80
2018-10-19T23:35:29.538Z,76.70
2018-10-19T23:37:59.666Z,76.50
2018-10-19T23:40:30.176Z,76.40
2018-10-19T23:43:01.714Z,76.40
2018-10-19T23:45:31.909Z,76.20
2018-10-19T23:48:02.036Z,76.10
2018-10-19T23:50:32.470Z,76.10
2018-10-19T23:53:02.276Z,76.00
2018-10-19T23:55:33.516Z,75.90
2018-10-19T23:58:03.904Z,75.80
